Time,TemperatureF,DewpointF,PressureIn,WindDirection,WindDirectionDegrees,WindSpeedMPH,WindSpeedGustMPH,Humidity,HourlyPrecipIn,Conditions,Clouds,dailyrainin,SoftwareType,DateUTC
2013-05-15 00:02:00,46.8,16.9,30.14,SE,135,0.0,2.0,30,0.00,,,0.00,meteohub,2013-05-15 07:02:00,
2013-05-15 00:07:00,46.9,17.1,30.14,SE,135,2.0,2.0,30,0.00,,,0.00,meteohub,2013-05-15 07:07:00,
2013-05-15 00:12:00,46.9,17.8,30.14,SE,135,1.0,2.0,31,0.00,,,0.00,meteohub,2013-05-15 07:12:00,
2013-05-15 00:17:00,47.5,18.3,30.15,SE,135,2.0,2.0,31,0.00,,,0.00,meteohub,2013-05-15 07:17:00,
2013-05-15 00:22:00,48.2,19.0,30.15,West,270,2.0,2.0,31,0.00,,,0.00,meteohub,2013-05-15 07:22:00,
2013-05-15 00:27:00,48.6,19.9,30.15,West,270,2.0,2.0,32,0.00,,,0.00,meteohub,2013-05-15 07:27:00,
2013-05-15 00:32:00,48.7,20.8,30.15,West,270,1.0,2.0,33,0.00,,,0.00,meteohub,2013-05-15 07:32:00,
2013-05-15 00:42:00,48.4,20.7,30.16,West,270,1.0,2.0,33,0.00,,,0.00,meteohub,2013-05-15 07:42:00,
2013-05-15 00:47:00,47.8,20.1,30.16,West,270,2.0,2.0,33,0.00,,,0.00,meteohub,2013-05-15 07:47:00,
2013-05-15 00:52:00,47.3,19.6,30.16,West,270,1.0,2.0,33,0.00,,,0.00,meteohub,2013-05-15 07:52:00,
2013-05-15 00:57:00,46.8,19.9,30.15,West,270,2.0,2.0,34,0.00,,,0.00,meteohub,2013-05-15 07:57:00,
2013-05-15 01:02:00,46.2,20.1,30.15,West,270,2.0,2.0,35,0.00,,,0.00,meteohub,2013-05-15 08:02:00,
2013-05-15 01:07:00,45.9,19.8,30.14,West,270,1.0,2.0,35,0.00,,,0.00,meteohub,2013-05-15 08:07:00,
2013-05-15 01:12:00,45.5,20.1,30.15,West,270,2.0,2.0,36,0.00,,,0.00,meteohub,2013-05-15 08:12:00,
2013-05-15 01:17:00,45.3,19.9,30.14,West,270,1.0,2.0,36,0.00,,,0.00,meteohub,2013-05-15 08:17:00,
2013-05-15 01:22:00,45.1,20.5,30.14,West,270,1.0,2.0,37,0.00,,,0.00,meteohub,2013-05-15 08:22:00,
2013-05-15 01:27:00,45.5,21.4,30.14,West,270,2.0,2.0,38,0.00,,,0.00,meteohub,2013-05-15 08:27:00,
2013-05-15 01:32:00,45.7,21.6,30.14,West,270,1.0,2.0,38,0.00,,,0.00,meteohub,2013-05-15 08:32:00,
2013-05-15 01:37:00,45.9,21.7,30.14,West,270,1.0,2.0,38,0.00,,,0.00,meteohub,2013-05-15 08:37:00,
2013-05-15 01:42:00,46.0,21.2,30.13,West,270,2.0,3.0,37,0.00,,,0.00,meteohub,2013-05-15 08:42:00,
2013-05-15 01:47:00,46.0,21.2,30.14,SE,135,3.0,3.0,37,0.00,,,0.00,meteohub,2013-05-15 08:47:00,
2013-05-15 01:52:00,45.9,21.0,30.13,SE,135,2.0,3.0,37,0.00,,,0.00,meteohub,2013-05-15 08:52:00,
2013-05-15 01:57:00,45.9,21.0,30.13,SE,135,1.0,3.0,37,0.00,,,0.00,meteohub,2013-05-15 08:57:00,
2013-05-15 02:02:00,46.2,20.7,30.13,SE,135,1.0,3.0,36,0.00,,,0.00,meteohub,2013-05-15 09:02:00,
2013-05-15 02:07:00,46.8,21.2,30.13,SE,135,1.0,2.0,36,0.00,,,0.00,meteohub,2013-05-15 09:07:00,
2013-05-15 02:12:00,46.8,21.2,30.13,SE,135,1.0,2.0,36,0.00,,,0.00,meteohub,2013-05-15 09:12:00,
2013-05-15 02:17:00,46.8,21.2,30.13,SE,135,0.0,2.0,36,0.00,,,0.00,meteohub,2013-05-15 09:17:00,
2013-05-15 02:22:00,46.4,20.8,30.14,SE,135,1.0,1.0,36,0.00,,,0.00,meteohub,2013-05-15 09:22:00,
2013-05-15 02:27:00,46.0,21.2,30.13,SE,135,2.0,2.0,37,0.00,,,0.00,meteohub,2013-05-15 09:27:00,
2013-05-15 02:37:00,46.2,21.4,30.13,SE,135,2.0,2.0,37,0.00,,,0.00,meteohub,2013-05-15 09:37:00,
2013-05-15 02:42:00,45.9,20.5,30.14,SE,135,1.0,2.0,36,0.00,,,0.00,meteohub,2013-05-15 09:42:00,
2013-05-15 02:47:00,45.9,21.0,30.14,East,90,2.0,7.0,37,0.00,,,0.00,meteohub,2013-05-15 09:47:00,
2013-05-15 02:52:00,46.2,21.4,30.13,East,90,0.0,7.0,37,0.00,,,0.00,meteohub,2013-05-15 09:52:00,
2013-05-15 02:57:00,45.7,20.8,30.13,East,90,2.0,7.0,37,0.00,,,0.00,meteohub,2013-05-15 09:57:00,
2013-05-15 03:02:00,45.7,21.6,30.13,East,90,2.0,2.0,38,0.00,,,0.00,meteohub,2013-05-15 10:02:00,
2013-05-15 03:07:00,45.5,21.4,30.14,East,90,2.0,2.0,38,0.00,,,0.00,meteohub,2013-05-15 10:07:00,
2013-05-15 03:12:00,45.3,21.2,30.13,East,90,2.0,2.0,38,0.00,,,0.00,meteohub,2013-05-15 10:12:00,
2013-05-15 03:17:00,45.0,21.6,30.13,East,90,2.0,2.0,39,0.00,,,0.00,meteohub,2013-05-15 10:17:00,
2013-05-15 03:22:00,44.4,21.6,30.13,East,90,2.0,2.0,40,0.00,,,0.00,meteohub,2013-05-15 10:22:00,
2013-05-15 03:27:00,44.2,21.4,30.13,East,90,2.0,4.0,40,0.00,,,0.00,meteohub,2013-05-15 10:27:00,
2013-05-15 03:32:00,44.4,21.6,30.13,East,90,0.0,4.0,40,0.00,,,0.00,meteohub,2013-05-15 10:32:00,
2013-05-15 03:37:00,44.6,21.7,30.13,East,90,2.0,4.0,40,0.00,,,0.00,meteohub,2013-05-15 10:37:00,
2013-05-15 03:42:00,45.1,22.3,30.13,East,90,2.0,3.0,40,0.00,,,0.00,meteohub,2013-05-15 10:42:00,
2013-05-15 03:47:00,45.5,21.9,30.13,East,90,2.0,2.0,39,0.00,,,0.00,meteohub,2013-05-15 10:47:00,
2013-05-15 03:52:00,45.1,22.3,30.13,East,90,0.0,2.0,40,0.00,,,0.00,meteohub,2013-05-15 10:52:00,
2013-05-15 03:57:00,44.6,21.7,30.13,East,90,0.0,2.0,40,0.00,,,0.00,meteohub,2013-05-15 10:57:00,
2013-05-15 04:02:00,44.2,22.6,30.13,ESE,113,2.0,2.0,42,0.00,,,0.00,meteohub,2013-05-15 11:02:00,
2013-05-15 04:07:00,44.1,22.5,30.13,ESE,113,2.0,2.0,42,0.00,,,0.00,meteohub,2013-05-15 11:07:00,
2013-05-15 04:12:00,43.3,21.7,30.13,ESE,113,2.0,2.0,42,0.00,,,0.00,meteohub,2013-05-15 11:12:00,
2013-05-15 04:17:00,43.0,22.1,30.13,ESE,113,2.0,2.0,43,0.00,,,0.00,meteohub,2013-05-15 11:17:00,
2013-05-15 04:22:00,43.0,22.1,30.12,ESE,113,1.0,2.0,43,0.00,,,0.00,meteohub,2013-05-15 11:22:00,
2013-05-15 04:27:00,42.3,21.4,30.13,ESE,113,2.0,2.0,43,0.00,,,0.00,meteohub,2013-05-15 11:27:00,
2013-05-15 04:32:00,41.7,21.9,30.13,ESE,113,2.0,2.0,45,0.00,,,0.00,meteohub,2013-05-15 11:32:00,
2013-05-15 04:37:00,41.7,21.9,30.13,ESE,113,1.0,2.0,45,0.00,,,0.00,meteohub,2013-05-15 11:37:00,
2013-05-15 04:42:00,41.5,21.7,30.13,ESE,113,0.0,2.0,45,0.00,,,0.00,meteohub,2013-05-15 11:42:00,
2013-05-15 04:47:00,41.4,22.1,30.12,ESE,113,2.0,2.0,46,0.00,,,0.00,meteohub,2013-05-15 11:47:00,
2013-05-15 04:52:00,41.0,21.7,30.12,ESE,113,2.0,2.0,46,0.00,,,0.00,meteohub,2013-05-15 11:52:00,
2013-05-15 04:57:00,40.3,21.7,30.12,ESE,113,0.0,2.0,47,0.00,,,0.00,meteohub,2013-05-15 11:57:00,
2013-05-15 05:02:00,39.9,21.7,30.12,ESE,113,1.0,2.0,48,0.00,,,0.00,meteohub,2013-05-15 12:02:00,
2013-05-15 05:07:00,39.9,21.7,30.12,ESE,113,0.0,2.0,48,0.00,,,0.00,meteohub,2013-05-15 12:07:00,
2013-05-15 05:12:00,40.1,22.5,30.12,ESE,113,2.0,2.0,49,0.00,,,0.00,meteohub,2013-05-15 12:12:00,
2013-05-15 05:22:00,39.7,22.1,30.12,ESE,113,0.0,2.0,49,0.00,,,0.00,meteohub,2013-05-15 12:22:00,
2013-05-15 05:27:00,39.4,21.7,30.12,ESE,113,1.0,2.0,49,0.00,,,0.00,meteohub,2013-05-15 12:27:00,
2013-05-15 05:32:00,39.4,22.3,30.12,ESE,113,0.0,1.0,50,0.00,,,0.00,meteohub,2013-05-15 12:32:00,
2013-05-15 05:37:00,39.4,22.3,30.12,ESE,113,1.0,1.0,50,0.00,,,0.00,meteohub,2013-05-15 12:37:00,
2013-05-15 05:42:00,39.4,22.8,30.12,ESE,113,0.0,1.0,51,0.00,,,0.00,meteohub,2013-05-15 12:42:00,
2013-05-15 05:47:00,39.6,23.0,30.13,ESE,113,2.0,2.0,51,0.00,,,0.00,meteohub,2013-05-15 12:47:00,
2013-05-15 05:52:00,39.9,23.7,30.12,ESE,113,2.0,2.0,52,0.00,,,0.00,meteohub,2013-05-15 12:52:00,
2013-05-15 06:02:00,39.4,23.7,30.13,East,90,2.0,3.0,53,0.00,,,0.00,meteohub,2013-05-15 13:02:00,
2013-05-15 06:07:00,39.7,24.1,30.13,East,90,1.0,4.0,53,0.00,,,0.00,meteohub,2013-05-15 13:07:00,
2013-05-15 06:12:00,39.6,24.3,30.14,East,90,2.0,4.0,54,0.00,,,0.00,meteohub,2013-05-15 13:12:00,
2013-05-15 06:17:00,40.1,24.8,30.14,ESE,113,0.0,4.0,54,0.00,,,0.00,meteohub,2013-05-15 13:17:00,
2013-05-15 06:22:00,40.6,25.3,30.13,East,90,0.0,4.0,54,0.00,,,0.00,meteohub,2013-05-15 13:22:00,
2013-05-15 06:28:00,41.5,26.1,30.13,East,90,1.0,3.0,54,0.00,,,0.00,meteohub,2013-05-15 13:28:00,
2013-05-15 06:37:00,43.7,27.1,30.13,East,90,2.0,2.0,52,0.00,,,0.00,meteohub,2013-05-15 13:37:00,
2013-05-15 06:42:00,44.1,27.1,30.13,East,90,2.0,2.0,51,0.00,,,0.00,meteohub,2013-05-15 13:42:00,
2013-05-15 06:47:00,45.0,27.9,30.13,East,90,1.0,3.0,51,0.00,,,0.00,meteohub,2013-05-15 13:47:00,
2013-05-15 06:52:00,46.2,29.1,30.14,East,90,2.0,3.0,51,0.00,,,0.00,meteohub,2013-05-15 13:52:00,
2013-05-15 07:02:00,48.0,29.8,30.14,East,90,0.0,2.0,49,0.00,,,0.00,meteohub,2013-05-15 14:02:00,
2013-05-15 07:07:00,49.3,30.9,30.14,East,90,1.0,2.0,49,0.00,,,0.00,meteohub,2013-05-15 14:07:00,
2013-05-15 07:12:00,50.2,31.3,30.14,East,90,1.0,1.0,48,0.00,,,0.00,meteohub,2013-05-15 14:12:00,
2013-05-15 07:17:00,51.1,32.0,30.14,East,90,0.0,1.0,48,0.00,,,0.00,meteohub,2013-05-15 14:17:00,
2013-05-15 07:22:00,52.2,32.5,30.14,East,90,1.0,1.0,47,0.00,,,0.00,meteohub,2013-05-15 14:22:00,
2013-05-15 07:27:00,53.2,33.1,30.13,East,90,1.0,1.0,46,0.00,,,0.00,meteohub,2013-05-15 14:27:00,
2013-05-15 07:37:00,55.0,32.9,30.14,ESE,113,3.0,3.0,43,0.00,,,0.00,meteohub,2013-05-15 14:37:00,
2013-05-15 07:47:00,57.0,33.6,30.14,West,270,3.0,4.0,41,0.00,,,0.00,meteohub,2013-05-15 14:47:00,
2013-05-15 07:57:00,59.2,33.6,30.14,West,270,2.0,4.0,38,0.00,,,0.00,meteohub,2013-05-15 14:57:00,
2013-05-15 08:02:00,59.9,32.9,30.14,West,270,2.0,3.0,36,0.00,,,0.00,meteohub,2013-05-15 15:02:00,
2013-05-15 08:07:00,60.4,32.0,30.14,West,270,3.0,4.0,34,0.00,,,0.00,meteohub,2013-05-15 15:07:00,
2013-05-15 08:17:00,61.2,33.3,30.14,SW,225,2.0,4.0,35,0.00,,,0.00,meteohub,2013-05-15 15:17:00,
2013-05-15 08:22:00,61.2,34.0,30.15,SW,225,2.0,4.0,36,0.00,,,0.00,meteohub,2013-05-15 15:22:00,
2013-05-15 08:27:00,61.5,34.3,30.15,North,0,2.0,4.0,36,0.00,,,0.00,meteohub,2013-05-15 15:27:00,
2013-05-15 08:32:00,62.2,34.2,30.15,North,0,2.0,4.0,35,0.00,,,0.00,meteohub,2013-05-15 15:32:00,
2013-05-15 08:37:00,62.8,34.0,30.15,West,270,2.0,4.0,34,0.00,,,0.00,meteohub,2013-05-15 15:37:00,
2013-05-15 08:47:00,63.5,33.1,30.14,NNE,23,2.0,4.0,32,0.00,,,0.00,meteohub,2013-05-15 15:47:00,
2013-05-15 08:52:00,64.2,33.8,30.15,West,270,2.0,4.0,32,0.00,,,0.00,meteohub,2013-05-15 15:52:00,
2013-05-15 09:02:00,64.0,32.0,30.15,West,270,2.0,4.0,30,0.00,,,0.00,meteohub,2013-05-15 16:02:00,
2013-05-15 09:07:00,64.2,32.2,30.15,West,270,3.0,4.0,30,0.00,,,0.00,meteohub,2013-05-15 16:07:00,
2013-05-15 09:12:00,64.0,32.0,30.15,West,270,4.0,5.0,30,0.00,,,0.00,meteohub,2013-05-15 16:12:00,
2013-05-15 09:17:00,64.2,32.9,30.15,North,0,2.0,6.0,31,0.00,,,0.00,meteohub,2013-05-15 16:17:00,
2013-05-15 09:22:00,64.8,32.5,30.16,North,0,3.0,6.0,30,0.00,,,0.00,meteohub,2013-05-15 16:22:00,
2013-05-15 09:27:00,64.6,32.4,30.16,West,270,3.0,7.0,30,0.00,,,0.00,meteohub,2013-05-15 16:27:00,
2013-05-15 09:32:00,64.6,32.4,30.16,West,270,5.0,7.0,30,0.00,,,0.00,meteohub,2013-05-15 16:32:00,
2013-05-15 09:42:00,65.5,33.3,30.16,West,270,2.0,5.0,30,0.00,,,0.00,meteohub,2013-05-15 16:42:00,
2013-05-15 09:47:00,65.5,33.3,30.16,SW,225,3.0,5.0,30,0.00,,,0.00,meteohub,2013-05-15 16:47:00,
2013-05-15 09:52:00,66.0,33.6,30.16,West,270,4.0,9.0,30,0.00,,,0.00,meteohub,2013-05-15 16:52:00,
2013-05-15 09:57:00,66.6,34.2,30.16,West,270,4.0,9.0,30,0.00,,,0.00,meteohub,2013-05-15 16:57:00,
2013-05-15 10:07:00,67.6,33.4,30.16,West,270,4.0,4.0,28,0.00,,,0.00,meteohub,2013-05-15 17:07:00,
2013-05-15 10:12:00,67.1,33.8,30.16,West,270,3.0,7.0,29,0.00,,,0.00,meteohub,2013-05-15 17:12:00,
2013-05-15 10:22:00,68.2,33.8,30.16,West,270,2.0,7.0,28,0.00,,,0.00,meteohub,2013-05-15 17:22:00,
2013-05-15 10:32:00,68.2,32.9,30.16,West,270,3.0,4.0,27,0.00,,,0.00,meteohub,2013-05-15 17:32:00,
2013-05-15 10:37:00,68.0,32.7,30.16,West,270,5.0,5.0,27,0.00,,,0.00,meteohub,2013-05-15 17:37:00,
2013-05-15 10:47:00,68.2,32.9,30.16,West,270,3.0,6.0,27,0.00,,,0.00,meteohub,2013-05-15 17:47:00,
2013-05-15 10:52:00,68.4,34.0,30.16,North,0,4.0,6.0,28,0.00,,,0.00,meteohub,2013-05-15 17:52:00,
2013-05-15 10:57:00,69.4,34.0,30.16,West,270,2.0,6.0,27,0.00,,,0.00,meteohub,2013-05-15 17:57:00,
2013-05-15 11:02:00,69.6,34.2,30.16,West,270,3.0,4.0,27,0.00,,,0.00,meteohub,2013-05-15 18:02:00,
2013-05-15 11:12:00,70.0,33.4,30.16,North,0,4.0,5.0,26,0.00,,,0.00,meteohub,2013-05-15 18:12:00,
2013-05-15 11:22:00,70.2,32.7,30.16,West,270,5.0,9.0,25,0.00,,,0.00,meteohub,2013-05-15 18:22:00,
2013-05-15 11:27:00,69.6,33.3,30.16,West,270,3.0,9.0,26,0.00,,,0.00,meteohub,2013-05-15 18:27:00,
2013-05-15 11:32:00,69.6,33.3,30.16,West,270,4.0,6.0,26,0.00,,,0.00,meteohub,2013-05-15 18:32:00,
2013-05-15 11:37:00,69.8,33.4,30.17,West,270,2.0,6.0,26,0.00,,,0.00,meteohub,2013-05-15 18:37:00,
2013-05-15 11:47:00,69.6,32.2,30.17,West,270,4.0,7.0,25,0.00,,,0.00,meteohub,2013-05-15 18:47:00,
2013-05-15 11:52:00,70.0,32.5,30.17,SW,225,3.0,7.0,25,0.00,,,0.00,meteohub,2013-05-15 18:52:00,
2013-05-15 11:57:00,70.5,33.1,30.16,North,0,6.0,7.0,25,0.00,,,0.00,meteohub,2013-05-15 18:57:00,
2013-05-15 12:02:00,70.7,33.1,30.17,West,270,3.0,6.0,25,0.00,,,0.00,meteohub,2013-05-15 19:02:00,
2013-05-15 12:07:00,70.5,32.0,30.16,West,270,4.0,9.0,24,0.00,,,0.00,meteohub,2013-05-15 19:07:00,
2013-05-15 12:12:00,70.7,33.1,30.16,SW,225,2.0,9.0,25,0.00,,,0.00,meteohub,2013-05-15 19:12:00,
2013-05-15 12:17:00,70.9,33.3,30.16,West,270,6.0,9.0,25,0.00,,,0.00,meteohub,2013-05-15 19:17:00,
2013-05-15 12:27:00,72.1,33.4,30.16,West,270,2.0,8.0,24,0.00,,,0.00,meteohub,2013-05-15 19:27:00,
2013-05-15 12:32:00,72.0,33.3,30.16,West,270,9.0,9.0,24,0.00,,,0.00,meteohub,2013-05-15 19:32:00,
2013-05-15 12:42:00,71.8,32.0,30.16,North,0,4.0,9.0,23,0.00,,,0.00,meteohub,2013-05-15 19:42:00,
2013-05-15 12:52:00,72.0,32.2,30.16,SW,225,2.0,6.0,23,0.00,,,0.00,meteohub,2013-05-15 19:52:00,
2013-05-15 12:57:00,72.0,32.2,30.15,West,270,4.0,6.0,23,0.00,,,0.00,meteohub,2013-05-15 19:57:00,
2013-05-15 13:02:00,72.0,33.3,30.16,West,270,6.0,6.0,24,0.00,,,0.00,meteohub,2013-05-15 20:02:00,
2013-05-15 13:07:00,72.0,32.2,30.16,West,270,4.0,6.0,23,0.00,,,0.00,meteohub,2013-05-15 20:07:00,
2013-05-15 13:12:00,71.8,34.0,30.15,West,270,4.0,6.0,25,0.00,,,0.00,meteohub,2013-05-15 20:12:00,
2013-05-15 13:17:00,71.8,33.1,30.16,West,270,7.0,7.0,24,0.00,,,0.00,meteohub,2013-05-15 20:17:00,
2013-05-15 13:22:00,72.5,32.5,30.15,West,270,4.0,7.0,23,0.00,,,0.00,meteohub,2013-05-15 20:22:00,
2013-05-15 13:27:00,73.0,33.1,30.15,West,270,5.0,7.0,23,0.00,,,0.00,meteohub,2013-05-15 20:27:00,
2013-05-15 13:37:00,74.1,34.0,30.15,West,270,4.0,5.0,23,0.00,,,0.00,meteohub,2013-05-15 20:37:00,
2013-05-15 13:42:00,74.1,35.1,30.15,West,270,2.0,7.0,24,0.00,,,0.00,meteohub,2013-05-15 20:42:00,
2013-05-15 13:47:00,74.3,35.2,30.16,South,180,3.0,7.0,24,0.00,,,0.00,meteohub,2013-05-15 20:47:00,
2013-05-15 13:57:00,74.8,39.6,30.15,West,270,5.0,8.0,28,0.00,,,0.00,meteohub,2013-05-15 20:57:00,
2013-05-15 14:02:00,74.1,39.0,30.15,SW,225,2.0,8.0,28,0.00,,,0.00,meteohub,2013-05-15 21:02:00,
2013-05-15 14:07:00,73.8,38.7,30.15,West,270,4.0,8.0,28,0.00,,,0.00,meteohub,2013-05-15 21:07:00,
2013-05-15 14:12:00,74.7,38.5,30.15,West,270,4.0,7.0,27,0.00,,,0.00,meteohub,2013-05-15 21:12:00,
2013-05-15 14:17:00,74.7,36.5,30.15,West,270,4.0,5.0,25,0.00,,,0.00,meteohub,2013-05-15 21:17:00,
2013-05-15 14:22:00,74.1,37.0,30.15,SW,225,5.0,7.0,26,0.00,,,0.00,meteohub,2013-05-15 21:22:00,
2013-05-15 14:32:00,74.3,40.8,30.15,SW,225,4.0,7.0,30,0.00,,,0.00,meteohub,2013-05-15 21:32:00,
2013-05-15 14:37:00,74.3,40.8,30.15,NE,45,4.0,7.0,30,0.00,,,0.00,meteohub,2013-05-15 21:37:00,
2013-05-15 14:42:00,74.7,41.2,30.14,NE,45,2.0,5.0,30,0.00,,,0.00,meteohub,2013-05-15 21:42:00,
2013-05-15 14:52:00,75.7,42.1,30.14,South,180,4.0,6.0,30,0.00,,,0.00,meteohub,2013-05-15 21:52:00,
2013-05-15 15:02:00,74.8,40.5,30.14,East,90,4.0,8.0,29,0.00,,,0.00,meteohub,2013-05-15 22:02:00,
2013-05-15 15:07:00,74.7,42.1,30.14,NE,45,2.0,8.0,31,0.00,,,0.00,meteohub,2013-05-15 22:07:00,
2013-05-15 15:12:00,74.1,41.5,30.14,South,180,2.0,6.0,31,0.00,,,0.00,meteohub,2013-05-15 22:12:00,
2013-05-15 15:17:00,73.6,41.9,30.14,North,0,3.0,6.0,32,0.00,,,0.00,meteohub,2013-05-15 22:17:00,
2013-05-15 15:22:00,72.3,40.8,30.14,SW,225,4.0,6.0,32,0.00,,,0.00,meteohub,2013-05-15 22:22:00,
2013-05-15 15:27:00,71.2,40.6,30.14,SW,225,2.0,8.0,33,0.00,,,0.00,meteohub,2013-05-15 22:27:00,
2013-05-15 15:32:00,71.6,41.0,30.14,South,180,4.0,8.0,33,0.00,,,0.00,meteohub,2013-05-15 22:32:00,
2013-05-15 15:42:00,70.9,40.3,30.14,NE,45,3.0,10.0,33,0.00,,,0.00,meteohub,2013-05-15 22:42:00,
2013-05-15 15:52:00,69.4,39.9,30.14,North,0,2.0,9.0,34,0.00,,,0.00,meteohub,2013-05-15 22:52:00,
2013-05-15 15:57:00,70.2,38.1,30.14,NE,45,4.0,9.0,31,0.00,,,0.00,meteohub,2013-05-15 22:57:00,
2013-05-15 16:07:00,70.2,39.7,30.14,West,270,2.0,5.0,33,0.00,,,0.00,meteohub,2013-05-15 23:07:00,
2013-05-15 16:17:00,72.0,40.5,30.14,South,180,3.0,5.0,32,0.00,,,0.00,meteohub,2013-05-15 23:17:00,
2013-05-15 16:22:00,72.1,39.9,30.14,SW,225,3.0,6.0,31,0.00,,,0.00,meteohub,2013-05-15 23:22:00,
2013-05-15 16:27:00,72.9,39.6,30.14,SW,225,4.0,6.0,30,0.00,,,0.00,meteohub,2013-05-15 23:27:00,
2013-05-15 16:32:00,72.3,39.2,30.14,SW,225,6.0,7.0,30,0.00,,,0.00,meteohub,2013-05-15 23:32:00,
2013-05-15 16:37:00,71.2,38.3,30.14,ENE,68,4.0,7.0,30,0.00,,,0.00,meteohub,2013-05-15 23:37:00,
2013-05-15 16:42:00,70.9,38.7,30.14,WSW,248,3.0,7.0,31,0.00,,,0.00,meteohub,2013-05-15 23:42:00,
2013-05-15 16:47:00,70.5,37.6,30.14,South,180,3.0,6.0,30,0.00,,,0.00,meteohub,2013-05-15 23:47:00,
2013-05-15 16:52:00,70.2,38.1,30.14,South,180,4.0,4.0,31,0.00,,,0.00,meteohub,2013-05-15 23:52:00,
2013-05-15 16:57:00,69.4,37.4,30.14,SE,135,1.0,5.0,31,0.00,,,0.00,meteohub,2013-05-15 23:57:00,
2013-05-15 17:02:00,69.4,38.3,30.14,West,270,4.0,5.0,32,0.00,,,0.00,meteohub,2013-05-16 00:02:00,
2013-05-15 17:07:00,69.3,36.5,30.14,SSW,203,5.0,5.0,30,0.00,,,0.00,meteohub,2013-05-16 00:07:00,
2013-05-15 17:12:00,68.5,36.0,30.14,SE,135,4.0,7.0,30,0.00,,,0.00,meteohub,2013-05-16 00:12:00,
2013-05-15 17:17:00,68.0,36.3,30.14,SE,135,2.0,7.0,31,0.00,,,0.00,meteohub,2013-05-16 00:17:00,
2013-05-15 17:22:00,67.6,36.0,30.14,East,90,8.0,8.0,31,0.00,,,0.00,meteohub,2013-05-16 00:22:00,
2013-05-15 17:27:00,66.6,35.8,30.14,NE,45,2.0,8.0,32,0.00,,,0.00,meteohub,2013-05-16 00:27:00,
2013-05-15 17:32:00,66.6,36.5,30.14,NE,45,3.0,8.0,33,0.00,,,0.00,meteohub,2013-05-16 00:32:00,
2013-05-15 17:42:00,65.7,36.5,30.14,North,0,4.0,5.0,34,0.00,,,0.00,meteohub,2013-05-16 00:42:00,
2013-05-15 17:47:00,64.6,35.6,30.14,NE,45,2.0,5.0,34,0.00,,,0.00,meteohub,2013-05-16 00:47:00,
2013-05-15 17:52:00,63.9,35.6,30.13,NE,45,2.0,4.0,35,0.00,,,0.00,meteohub,2013-05-16 00:52:00,
2013-05-15 18:02:00,62.8,36.1,30.13,SE,135,2.0,8.0,37,0.00,,,0.00,meteohub,2013-05-16 01:02:00,
2013-05-15 18:07:00,62.4,36.5,30.13,NE,45,2.0,8.0,38,0.00,,,0.00,meteohub,2013-05-16 01:07:00,
2013-05-15 18:12:00,61.9,37.2,30.12,East,90,5.0,8.0,40,0.00,,,0.00,meteohub,2013-05-16 01:12:00,
2013-05-15 18:17:00,61.3,37.4,30.13,North,0,2.0,8.0,41,0.00,,,0.00,meteohub,2013-05-16 01:17:00,
2013-05-15 18:22:00,61.2,37.9,30.12,NE,45,2.0,8.0,42,0.00,,,0.00,meteohub,2013-05-16 01:22:00,
2013-05-15 18:27:00,60.8,38.1,30.13,North,0,3.0,8.0,43,0.00,,,0.00,meteohub,2013-05-16 01:27:00,
2013-05-15 18:37:00,59.9,37.9,30.12,East,90,3.0,5.0,44,0.00,,,0.00,meteohub,2013-05-16 01:37:00,
2013-05-15 18:47:00,59.2,37.2,30.12,ENE,68,4.0,4.0,44,0.00,,,0.00,meteohub,2013-05-16 01:47:00,
2013-05-15 18:52:00,59.0,37.0,30.12,SE,135,2.0,4.0,44,0.00,,,0.00,meteohub,2013-05-16 01:52:00,
2013-05-15 18:57:00,58.8,37.0,30.12,SE,135,4.0,4.0,44,0.00,,,0.00,meteohub,2013-05-16 01:57:00,
2013-05-15 19:02:00,58.6,36.9,30.12,SE,135,2.0,4.0,44,0.00,,,0.00,meteohub,2013-05-16 02:02:00,
2013-05-15 19:12:00,57.9,37.2,30.12,NE,45,2.0,4.0,46,0.00,,,0.00,meteohub,2013-05-16 02:12:00,
2013-05-15 19:17:00,57.6,37.9,30.12,South,180,2.0,4.0,48,0.00,,,0.00,meteohub,2013-05-16 02:17:00,
2013-05-15 19:27:00,56.7,38.7,30.12,North,0,3.0,4.0,51,0.00,,,0.00,meteohub,2013-05-16 02:27:00,
2013-05-15 19:32:00,55.9,39.0,30.12,East,90,4.0,4.0,53,0.00,,,0.00,meteohub,2013-05-16 02:32:00,
2013-05-15 19:37:00,55.4,38.5,30.12,ESE,113,2.0,6.0,53,0.00,,,0.00,meteohub,2013-05-16 02:37:00,
2013-05-15 19:42:00,55.0,38.7,30.12,North,0,2.0,6.0,54,0.00,,,0.00,meteohub,2013-05-16 02:42:00,
2013-05-15 19:47:00,54.7,38.3,30.12,North,0,2.0,6.0,54,0.00,,,0.00,meteohub,2013-05-16 02:47:00,
2013-05-15 19:52:00,54.5,38.7,30.12,North,0,2.0,4.0,55,0.00,,,0.00,meteohub,2013-05-16 02:52:00,
2013-05-15 19:57:00,54.3,39.0,30.13,NE,45,4.0,4.0,56,0.00,,,0.00,meteohub,2013-05-16 02:57:00,
2013-05-15 20:02:00,54.1,38.8,30.12,East,90,1.0,4.0,56,0.00,,,0.00,meteohub,2013-05-16 03:02:00,
2013-05-15 20:12:00,53.8,38.8,30.13,East,90,5.0,5.0,57,0.00,,,0.00,meteohub,2013-05-16 03:12:00,
2013-05-15 20:17:00,53.4,38.5,30.13,NE,45,2.0,6.0,57,0.00,,,0.00,meteohub,2013-05-16 03:17:00,
2013-05-15 20:27:00,52.7,37.9,30.14,NE,45,2.0,6.0,57,0.00,,,0.00,meteohub,2013-05-16 03:27:00,
2013-05-15 20:32:00,52.3,37.9,30.13,East,90,1.0,2.0,58,0.00,,,0.00,meteohub,2013-05-16 03:32:00,
2013-05-15 20:37:00,52.2,37.8,30.13,SSE,158,1.0,4.0,58,0.00,,,0.00,meteohub,2013-05-16 03:37:00,
2013-05-15 20:47:00,52.2,38.3,30.13,SSE,158,2.0,4.0,59,0.00,,,0.00,meteohub,2013-05-16 03:47:00,
2013-05-15 20:52:00,52.2,38.3,30.13,SSE,158,2.0,2.0,59,0.00,,,0.00,meteohub,2013-05-16 03:52:00,
2013-05-15 20:57:00,52.0,38.1,30.14,SSE,158,0.0,2.0,59,0.00,,,0.00,meteohub,2013-05-16 03:57:00,
2013-05-15 21:02:00,52.0,38.1,30.13,SSE,158,1.0,2.0,59,0.00,,,0.00,meteohub,2013-05-16 04:02:00,
2013-05-15 21:07:00,51.8,37.9,30.14,SSE,158,0.0,2.0,59,0.00,,,0.00,meteohub,2013-05-16 04:07:00,
2013-05-15 21:12:00,51.4,37.6,30.14,SSE,158,1.0,2.0,59,0.00,,,0.00,meteohub,2013-05-16 04:12:00,
2013-05-15 21:17:00,51.3,37.4,30.13,SSE,158,1.0,1.0,59,0.00,,,0.00,meteohub,2013-05-16 04:17:00,
2013-05-15 21:22:00,50.9,37.0,30.14,SSE,158,0.0,1.0,59,0.00,,,0.00,meteohub,2013-05-16 04:22:00,
2013-05-15 21:27:00,50.7,36.9,30.14,SSE,158,2.0,2.0,59,0.00,,,0.00,meteohub,2013-05-16 04:27:00,
2013-05-15 21:32:00,50.7,36.9,30.14,SSE,158,1.0,2.0,59,0.00,,,0.00,meteohub,2013-05-16 04:32:00,
2013-05-15 21:37:00,50.4,36.5,30.14,SSE,158,0.0,2.0,59,0.00,,,0.00,meteohub,2013-05-16 04:37:00,
2013-05-15 21:42:00,50.0,36.7,30.14,SSE,158,1.0,2.0,60,0.00,,,0.00,meteohub,2013-05-16 04:42:00,
2013-05-15 21:47:00,49.6,36.3,30.14,SSE,158,2.0,2.0,60,0.00,,,0.00,meteohub,2013-05-16 04:47:00,
2013-05-15 21:52:00,49.3,36.0,30.14,SSE,158,2.0,2.0,60,0.00,,,0.00,meteohub,2013-05-16 04:52:00,
2013-05-15 21:57:00,48.9,35.6,30.14,SSE,158,1.0,2.0,60,0.00,,,0.00,meteohub,2013-05-16 04:57:00,
2013-05-15 22:02:00,48.6,35.2,30.14,SSE,158,0.0,2.0,60,0.00,,,0.00,meteohub,2013-05-16 05:02:00,
2013-05-15 22:07:00,47.8,34.7,30.14,SSE,158,2.0,2.0,60,0.00,,,0.00,meteohub,2013-05-16 05:07:00,
2013-05-15 22:12:00,47.3,34.2,30.13,SSE,158,2.0,2.0,60,0.00,,,0.00,meteohub,2013-05-16 05:12:00,
2013-05-15 22:17:00,47.1,34.0,30.13,SSE,158,2.0,2.0,60,0.00,,,0.00,meteohub,2013-05-16 05:17:00,
2013-05-15 22:22:00,47.1,34.0,30.14,SSE,158,2.0,4.0,60,0.00,,,0.00,meteohub,2013-05-16 05:22:00,
2013-05-15 22:27:00,47.3,34.2,30.14,East,90,1.0,4.0,60,0.00,,,0.00,meteohub,2013-05-16 05:27:00,
2013-05-15 22:32:00,47.5,33.8,30.13,East,90,1.0,4.0,59,0.00,,,0.00,meteohub,2013-05-16 05:32:00,
2013-05-15 22:37:00,47.8,33.8,30.13,East,90,2.0,4.0,58,0.00,,,0.00,meteohub,2013-05-16 05:37:00,
2013-05-15 22:42:00,47.8,33.3,30.13,East,90,2.0,2.0,57,0.00,,,0.00,meteohub,2013-05-16 05:42:00,
2013-05-15 22:47:00,48.4,33.4,30.13,East,90,1.0,2.0,56,0.00,,,0.00,meteohub,2013-05-16 05:47:00,
2013-05-15 22:52:00,48.4,32.9,30.13,East,90,1.0,3.0,55,0.00,,,0.00,meteohub,2013-05-16 05:52:00,
2013-05-15 22:57:00,48.2,32.7,30.13,East,90,2.0,3.0,55,0.00,,,0.00,meteohub,2013-05-16 05:57:00,
2013-05-15 23:02:00,48.4,32.9,30.13,East,90,1.0,2.0,55,0.00,,,0.00,meteohub,2013-05-16 06:02:00,
2013-05-15 23:07:00,48.9,33.1,30.13,East,90,2.0,2.0,54,0.00,,,0.00,meteohub,2013-05-16 06:07:00,
2013-05-15 23:12:00,49.3,32.9,30.13,East,90,0.0,2.0,53,0.00,,,0.00,meteohub,2013-05-16 06:12:00,
2013-05-15 23:17:00,49.5,33.1,30.13,East,90,1.0,2.0,53,0.00,,,0.00,meteohub,2013-05-16 06:17:00,
2013-05-15 23:22:00,49.5,33.1,30.13,East,90,2.0,2.0,53,0.00,,,0.00,meteohub,2013-05-16 06:22:00,
2013-05-15 23:27:00,48.7,32.4,30.13,East,90,0.0,2.0,53,0.00,,,0.00,meteohub,2013-05-16 06:27:00,
2013-05-15 23:32:00,48.4,32.0,30.13,East,90,0.0,3.0,53,0.00,,,0.00,meteohub,2013-05-16 06:32:00,
2013-05-15 23:37:00,47.8,32.0,30.12,East,90,2.0,3.0,54,0.00,,,0.00,meteohub,2013-05-16 06:37:00,
2013-05-15 23:42:00,47.5,31.6,30.13,East,90,1.0,3.0,54,0.00,,,0.00,meteohub,2013-05-16 06:42:00,
2013-05-15 23:47:00,47.5,32.2,30.13,East,90,2.0,3.0,55,0.00,,,0.00,meteohub,2013-05-16 06:47:00,
2013-05-15 23:52:00,47.5,31.6,30.13,East,90,1.0,3.0,54,0.00,,,0.00,meteohub,2013-05-16 06:52:00,
2013-05-15 23:57:00,47.3,31.5,30.12,East,90,1.0,2.0,54,0.00,,,0.00,meteohub,2013-05-16 06:57:00,